createdAt,value
2018-09-03T00:00:57.053Z,58.80
2018-09-03T00:03:25.129Z,58.90
2018-09-03T00:05:53.182Z,59.10
2018-09-03T00:08:21.251Z,59.00
2018-09-03T00:10:49.329Z,59.00
2018-09-03T00:13:17.426Z,59.40
2018-09-03T00:15:45.502Z,59.30
2018-09-03T00:18:13.570Z,59.40
2018-09-03T00:20:41.632Z,59.40
2018-09-03T00:23:09.718Z,59.70
2018-09-03T00:25:37.794Z,59.80
2018-09-03T00:28:05.883Z,59.80
2018-09-03T00:30:33.970Z,60.10
2018-09-03T00:33:07.459Z,60.10
2018-09-03T00:35:41.080Z,60.20
2018-09-03T00:38:14.738Z,60.20
2018-09-03T00:40:48.179Z,60.50
2018-09-03T00:43:21.674Z,60.50
2018-09-03T00:45:55.190Z,61.80
2018-09-03T00:48:23.590Z,61.50
2018-09-03T00:50:51.638Z,63.00
2018-09-03T00:53:19.706Z,62.50
2018-09-03T00:55:47.777Z,62.40
2018-09-03T00:58:15.855Z,62.00
2018-09-03T01:00:43.916Z,61.80
2018-09-03T01:03:12.887Z,61.80
2018-09-03T01:05:41.108Z,61.80
2018-09-03T01:08:09.159Z,61.90
2018-09-03T01:10:37.217Z,62.00
2018-09-03T01:13:05.415Z,62.30
2018-09-03T01:15:33.490Z,62.30
2018-09-03T01:18:02.512Z,62.30
2018-09-03T01:20:31.078Z,62.30
2018-09-03T01:22:59.169Z,62.50
2018-09-03T01:25:27.273Z,62.50
2018-09-03T01:27:55.346Z,62.60
2018-09-03T01:30:23.519Z,62.90
2018-09-03T01:32:51.592Z,62.80
2018-09-03T01:35:19.690Z,63.20
2018-09-03T01:37:47.779Z,63.40
2018-09-03T01:40:15.838Z,64.60
2018-09-03T01:42:43.979Z,64.20
2018-09-03T01:45:12.106Z,64.20
2018-09-03T01:47:40.153Z,64.20
2018-09-03T01:50:08.226Z,64.00
2018-09-03T01:52:36.283Z,64.40
2018-09-03T01:55:04.351Z,64.40
2018-09-03T01:57:32.447Z,64.60
2018-09-03T02:00:00.528Z,64.70
2018-09-03T02:02:28.909Z,64.60
2018-09-03T02:04:56.983Z,64.80
2018-09-03T02:07:25.053Z,65.10
2018-09-03T02:09:53.115Z,65.20
2018-09-03T02:12:21.179Z,65.20
2018-09-03T02:14:49.258Z,65.10
2018-09-03T02:17:17.328Z,65.30
2018-09-03T02:19:45.370Z,65.70
2018-09-03T02:22:13.446Z,65.70
2018-09-03T02:24:41.558Z,65.90
2018-09-03T02:27:09.654Z,65.60
2018-09-03T02:29:37.751Z,66.10
2018-09-03T02:32:05.907Z,66.30
2018-09-03T02:34:33.978Z,66.60
2018-09-03T02:37:02.042Z,67.40
2018-09-03T02:39:30.115Z,66.70
2018-09-03T02:41:58.169Z,66.90
2018-09-03T02:44:26.234Z,67.00
2018-09-03T02:46:54.302Z,66.90
2018-09-03T02:49:22.378Z,67.10
2018-09-03T02:51:50.472Z,67.20
2018-09-03T02:54:18.543Z,67.50
2018-09-03T02:56:46.611Z,68.00
2018-09-03T02:59:14.670Z,67.40
2018-09-03T03:01:42.767Z,67.50
2018-09-03T03:04:10.850Z,67.40
2018-09-03T03:06:38.970Z,67.40
2018-09-03T03:09:08.138Z,67.40
2018-09-03T03:11:36.545Z,67.80
2018-09-03T03:14:04.587Z,67.70
2018-09-03T03:16:32.666Z,67.70
2018-09-03T03:19:00.751Z,67.60
2018-09-03T03:21:28.842Z,67.90
2018-09-03T03:23:56.942Z,67.80
2018-09-03T03:26:25.015Z,67.70
2018-09-03T03:28:53.085Z,67.80
2018-09-03T03:31:21.168Z,68.00
2018-09-03T03:33:49.255Z,68.10
2018-09-03T03:36:17.330Z,68.30
2018-09-03T03:38:45.402Z,68.20
2018-09-03T03:41:13.472Z,68.30
2018-09-03T03:43:41.587Z,68.50
2018-09-03T03:46:09.708Z,68.60
2018-09-03T03:48:37.813Z,68.50
2018-09-03T03:51:05.850Z,68.50
2018-09-03T03:53:34.006Z,68.80
2018-09-03T03:56:02.070Z,69.00
2018-09-03T03:58:30.153Z,69.00
2018-09-03T04:00:58.225Z,69.10
2018-09-03T04:03:26.413Z,69.20
2018-09-03T04:05:54.503Z,69.40
2018-09-03T04:08:22.569Z,69.40
2018-09-03T04:10:50.650Z,69.40
2018-09-03T04:13:18.719Z,69.60
2018-09-03T04:15:46.785Z,69.70
2018-09-03T04:18:14.856Z,70.60
2018-09-03T04:20:42.967Z,70.30
2018-09-03T04:23:11.179Z,70.40
2018-09-03T04:25:39.094Z,70.10
2018-09-03T04:28:07.490Z,70.10
2018-09-03T04:30:35.570Z,70.20
2018-09-03T04:33:03.637Z,70.20
2018-09-03T04:35:31.719Z,70.10
2018-09-03T04:37:59.802Z,70.20
2018-09-03T04:40:27.902Z,70.30
2018-09-03T04:42:55.984Z,70.20
2018-09-03T04:45:24.087Z,70.50
2018-09-03T04:47:52.227Z,70.30
2018-09-03T04:50:20.267Z,70.10
2018-09-03T04:52:48.334Z,70.50
2018-09-03T04:55:16.520Z,70.50
2018-09-03T04:57:44.507Z,70.40
2018-09-03T05:00:14.172Z,70.60
2018-09-03T05:02:42.210Z,70.50
2018-09-03T05:05:10.316Z,70.70
2018-09-03T05:07:38.367Z,70.70
2018-09-03T05:10:06.465Z,70.80
2018-09-03T05:12:34.550Z,70.90
2018-09-03T05:15:02.637Z,70.90
2018-09-03T05:17:31.054Z,71.00
2018-09-03T05:19:59.133Z,71.00
2018-09-03T05:22:27.194Z,71.10
2018-09-03T05:24:55.343Z,71.30
2018-09-03T05:27:23.427Z,71.20
2018-09-03T05:29:51.504Z,71.50
2018-09-03T05:32:19.579Z,71.60
2018-09-03T05:34:47.649Z,71.80
2018-09-03T05:37:15.720Z,71.60
2018-09-03T05:39:43.790Z,71.70
2018-09-03T05:42:11.886Z,71.70
2018-09-03T05:44:40.014Z,71.90
2018-09-03T05:47:08.078Z,71.80
2018-09-03T05:49:36.163Z,72.10
2018-09-03T05:52:04.254Z,72.10
2018-09-03T05:54:32.358Z,71.90
2018-09-03T05:57:00.445Z,72.10
2018-09-03T05:59:28.545Z,72.80
2018-09-03T06:01:56.958Z,72.40
2018-09-03T06:04:25.059Z,72.50
2018-09-03T06:06:53.126Z,72.30
2018-09-03T06:09:21.213Z,72.30
2018-09-03T06:11:49.286Z,72.20
2018-09-03T06:14:17.379Z,72.50
2018-09-03T06:16:45.475Z,72.40
2018-09-03T06:19:13.560Z,72.40
2018-09-03T06:21:41.653Z,72.40
2018-09-03T06:24:09.715Z,72.40
2018-09-03T06:26:37.808Z,72.60
2018-09-03T06:29:05.890Z,72.60
2018-09-03T06:31:33.978Z,72.50
2018-09-03T06:34:02.080Z,72.60
2018-09-03T06:36:30.152Z,72.50
2018-09-03T06:38:58.243Z,72.50
2018-09-03T06:41:26.312Z,72.50
2018-09-03T06:43:54.384Z,72.60
2018-09-03T06:46:22.445Z,72.60
2018-09-03T06:48:50.531Z,72.80
2018-09-03T06:51:18.604Z,72.70
2018-09-03T06:53:46.886Z,72.50
2018-09-03T06:56:14.964Z,72.60
2018-09-03T06:58:43.051Z,72.80
2018-09-03T07:01:11.606Z,72.70
2018-09-03T07:03:39.687Z,72.70
2018-09-03T07:06:07.746Z,72.60
2018-09-03T07:08:35.819Z,73.90
2018-09-03T07:11:03.895Z,73.60
2018-09-03T07:13:31.970Z,73.50
2018-09-03T07:16:00.040Z,73.30
2018-09-03T07:18:28.138Z,73.20
2018-09-03T07:20:56.215Z,73.20
2018-09-03T07:23:24.294Z,73.20
2018-09-03T07:25:52.361Z,73.10
2018-09-03T07:28:20.439Z,73.00
2018-09-03T07:30:48.546Z,73.00
2018-09-03T07:33:16.666Z,73.10
2018-09-03T07:35:44.763Z,73.00
2018-09-03T07:38:12.827Z,73.00
2018-09-03T07:40:40.942Z,73.10
2018-09-03T07:43:09.104Z,73.10
2018-09-03T07:45:37.170Z,73.30
2018-09-03T07:48:05.255Z,73.50
2018-09-03T07:50:33.327Z,73.40
2018-09-03T07:53:01.414Z,73.70
2018-09-03T07:55:29.507Z,73.80
2018-09-03T07:57:57.588Z,73.60
2018-09-03T08:00:25.667Z,74.30
2018-09-03T08:02:53.747Z,73.30
2018-09-03T08:05:21.820Z,73.10
2018-09-03T08:07:49.895Z,73.10
2018-09-03T08:10:18.003Z,72.90
2018-09-03T08:12:46.081Z,72.80
2018-09-03T08:15:14.163Z,72.70
2018-09-03T08:17:42.247Z,73.00
2018-09-03T08:20:10.426Z,72.30
2018-09-03T08:22:38.440Z,72.30
2018-09-03T08:25:06.515Z,72.50
2018-09-03T08:27:34.595Z,72.30
2018-09-03T08:30:02.711Z,72.30
2018-09-03T08:32:30.771Z,72.30
2018-09-03T08:34:58.926Z,72.10
2018-09-03T08:37:27.020Z,72.10
2018-09-03T08:39:55.181Z,72.20
2018-09-03T08:42:23.240Z,71.80
2018-09-03T08:44:51.346Z,71.80
2018-09-03T08:47:19.418Z,71.90
2018-09-03T08:49:47.550Z,71.70
2018-09-03T08:52:15.655Z,72.10
2018-09-03T08:54:43.775Z,72.00
2018-09-03T08:57:12.063Z,72.00
2018-09-03T08:59:40.161Z,71.90
2018-09-03T09:02:08.431Z,72.00
2018-09-03T09:04:36.587Z,72.20
2018-09-03T09:07:04.778Z,72.30
2018-09-03T09:09:32.864Z,72.50
2018-09-03T09:12:00.935Z,72.90
2018-09-03T09:14:29.019Z,72.40
2018-09-03T09:16:57.095Z,72.30
2018-09-03T09:19:25.215Z,72.70
2018-09-03T09:21:53.290Z,72.50
2018-09-03T09:24:21.412Z,72.30
2018-09-03T09:26:49.467Z,71.90
2018-09-03T09:29:17.542Z,71.70
2018-09-03T09:31:45.654Z,71.70
2018-09-03T09:34:13.741Z,71.50
2018-09-03T09:36:41.918Z,71.60
2018-09-03T09:39:16.749Z,71.30
2018-09-03T09:41:44.826Z,72.50
2018-09-03T09:44:12.887Z,71.50
2018-09-03T09:46:40.950Z,71.70
2018-09-03T09:49:09.030Z,71.70
2018-09-03T09:51:37.096Z,71.70
2018-09-03T09:54:05.182Z,71.60
2018-09-03T09:56:33.274Z,71.70
2018-09-03T09:59:01.330Z,71.80
2018-09-03T10:01:36.219Z,71.80
2018-09-03T10:04:04.487Z,71.90
2018-09-03T10:06:32.572Z,71.90
2018-09-03T10:09:00.695Z,72.30
2018-09-03T10:11:29.206Z,72.30
2018-09-03T10:13:57.483Z,72.10
2018-09-03T10:16:25.546Z,72.10
2018-09-03T10:18:53.760Z,71.90
2018-09-03T10:21:21.823Z,71.70
2018-09-03T10:23:49.878Z,71.60
2018-09-03T10:26:17.992Z,71.50
2018-09-03T10:28:46.012Z,71.00
2018-09-03T10:31:14.119Z,70.80
2018-09-03T10:33:42.179Z,70.70
2018-09-03T10:36:10.249Z,71.10
2018-09-03T10:38:38.339Z,70.70
2018-09-03T10:41:06.439Z,70.40
2018-09-03T10:43:34.535Z,70.10
2018-09-03T10:46:02.604Z,69.70
2018-09-03T10:48:30.697Z,69.60
2018-09-03T10:50:58.767Z,69.20
2018-09-03T10:53:26.907Z,68.80
2018-09-03T10:55:55.010Z,68.20
2018-09-03T10:58:23.083Z,68.20
2018-09-03T11:00:51.203Z,68.60
2018-09-03T11:03:19.331Z,68.10
2018-09-03T11:05:47.383Z,67.70
2018-09-03T11:08:15.524Z,67.40
2018-09-03T11:10:43.599Z,67.40
2018-09-03T11:13:11.771Z,67.30
2018-09-03T11:15:39.782Z,66.80
2018-09-03T11:18:07.859Z,66.40
2018-09-03T11:20:35.925Z,66.30
2018-09-03T11:23:03.995Z,66.10
2018-09-03T11:25:33.094Z,66.30
2018-09-03T11:28:01.593Z,66.30
2018-09-03T11:30:29.653Z,66.40
2018-09-03T11:32:59.067Z,66.50
2018-09-03T11:35:27.131Z,66.50
2018-09-03T11:37:55.204Z,66.10
2018-09-03T11:40:23.986Z,65.60
2018-09-03T11:42:52.059Z,65.70
2018-09-03T11:45:21.281Z,65.50
2018-09-03T11:47:49.541Z,65.40
2018-09-03T11:50:18.219Z,65.60
2018-09-03T11:52:46.310Z,65.80
2018-09-03T11:55:14.875Z,66.10
2018-09-03T11:57:43.253Z,67.70
2018-09-03T12:00:14.112Z,66.30
2018-09-03T12:02:42.173Z,66.50
2018-09-03T12:05:10.539Z,66.40
2018-09-03T12:07:38.602Z,66.30
2018-09-03T12:10:06.785Z,66.10
2018-09-03T12:12:34.859Z,65.90
2018-09-03T12:15:12.466Z,66.10
2018-09-03T12:17:40.528Z,66.50
2018-09-03T12:20:08.633Z,66.40
2018-09-03T12:22:36.677Z,66.30
2018-09-03T12:25:04.739Z,66.20
2018-09-03T12:27:32.830Z,66.50
2018-09-03T12:30:00.874Z,66.80
2018-09-03T12:32:28.974Z,66.70
2018-09-03T12:34:57.051Z,66.60
2018-09-03T12:37:25.149Z,66.80
2018-09-03T12:39:53.755Z,66.80
2018-09-03T12:42:21.827Z,67.10
2018-09-03T12:44:49.903Z,67.80
2018-09-03T12:47:18.003Z,67.50
2018-09-03T12:49:46.582Z,67.30
2018-09-03T12:52:14.662Z,67.50
2018-09-03T12:54:42.719Z,67.70
2018-09-03T12:57:10.787Z,67.50
2018-09-03T12:59:38.863Z,67.40
2018-09-03T13:02:07.255Z,67.50
2018-09-03T13:04:35.429Z,66.90
2018-09-03T13:07:03.411Z,66.90
2018-09-03T13:09:31.486Z,67.00
2018-09-03T13:11:59.551Z,66.40
2018-09-03T13:14:27.620Z,66.30
2018-09-03T13:16:55.698Z,66.00
2018-09-03T13:19:23.756Z,65.90
2018-09-03T13:21:51.832Z,66.40
2018-09-03T13:24:19.891Z,66.40
2018-09-03T13:26:47.966Z,65.90
2018-09-03T13:29:16.043Z,65.80
2018-09-03T13:31:44.126Z,65.70
2018-09-03T13:34:12.199Z,65.90
2018-09-03T13:36:40.291Z,65.30
2018-09-03T13:39:08.858Z,65.00
2018-09-03T13:41:36.982Z,65.00
2018-09-03T13:44:05.091Z,64.60
2018-09-03T13:46:33.170Z,64.00
2018-09-03T13:49:01.317Z,63.80
2018-09-03T13:51:29.611Z,64.10
2018-09-03T13:53:57.703Z,63.50
2018-09-03T13:56:25.820Z,63.20
2018-09-03T13:58:53.896Z,63.30
2018-09-03T14:01:21.967Z,63.10
2018-09-03T14:03:50.072Z,62.70
2018-09-03T14:06:18.138Z,62.40
2018-09-03T14:08:46.214Z,62.40
2018-09-03T14:11:14.505Z,61.80
2018-09-03T14:13:43.787Z,61.70
2018-09-03T14:16:11.872Z,61.80
2018-09-03T14:18:39.930Z,62.20
2018-09-03T14:21:08.237Z,62.00
2018-09-03T14:23:36.295Z,61.80
2018-09-03T14:26:04.352Z,61.80
2018-09-03T14:28:32.463Z,61.80
2018-09-03T14:31:00.515Z,61.90
2018-09-03T14:33:28.619Z,61.80
2018-09-03T14:35:56.728Z,62.20
2018-09-03T14:38:24.807Z,61.70
2018-09-03T14:40:52.876Z,61.90
2018-09-03T14:43:20.947Z,62.10
2018-09-03T14:45:49.034Z,62.50
2018-09-03T14:48:17.099Z,63.20
2018-09-03T14:50:45.194Z,62.70
2018-09-03T14:53:13.246Z,62.20
2018-09-03T14:55:41.383Z,61.50
2018-09-03T14:58:09.465Z,61.40
2018-09-03T15:00:37.530Z,60.60
2018-09-03T15:03:05.666Z,60.30
2018-09-03T15:05:33.747Z,60.00
2018-09-03T15:08:01.845Z,59.90
2018-09-03T15:10:29.903Z,60.50
2018-09-03T15:12:57.983Z,59.80
2018-09-03T15:15:26.054Z,59.40
2018-09-03T15:17:54.129Z,59.20
2018-09-03T15:20:22.314Z,58.80
2018-09-03T15:22:50.376Z,58.50
2018-09-03T15:25:18.470Z,58.60
2018-09-03T15:27:46.555Z,58.60
2018-09-03T15:30:14.639Z,58.50
2018-09-03T15:32:42.732Z,58.70
2018-09-03T15:35:10.793Z,58.20
2018-09-03T15:37:38.862Z,59.00
2018-09-03T15:40:06.943Z,58.80
2018-09-03T15:42:35.024Z,58.90
2018-09-03T15:45:03.120Z,59.00
2018-09-03T15:47:31.193Z,59.10
2018-09-03T15:49:59.264Z,59.40
2018-09-03T15:52:27.338Z,59.20
2018-09-03T15:54:55.399Z,58.90
2018-09-03T15:57:23.491Z,58.70
2018-09-03T15:59:51.567Z,58.60
2018-09-03T16:02:19.645Z,58.50
2018-09-03T16:04:47.716Z,58.90
2018-09-03T16:07:15.919Z,58.50
2018-09-03T16:09:43.999Z,58.60
2018-09-03T16:12:12.067Z,58.50
2018-09-03T16:14:40.139Z,58.60
2018-09-03T16:17:08.230Z,59.30
2018-09-03T16:19:36.302Z,58.70
2018-09-03T16:22:04.418Z,58.70
2018-09-03T16:24:32.510Z,59.60
2018-09-03T16:27:00.567Z,59.40
2018-09-03T16:29:28.641Z,60.00
2018-09-03T16:31:56.727Z,60.20
2018-09-03T16:34:24.802Z,60.50
2018-09-03T16:36:52.969Z,60.60
2018-09-03T16:39:21.041Z,61.00
2018-09-03T16:41:49.167Z,61.20
2018-09-03T16:44:17.171Z,61.50
2018-09-03T16:46:45.302Z,61.70
2018-09-03T16:49:13.533Z,62.00
2018-09-03T16:51:41.522Z,63.50
2018-09-03T16:54:09.594Z,63.40
2018-09-03T16:56:37.769Z,63.10
2018-09-03T16:59:05.929Z,63.50
2018-09-03T17:01:34.192Z,63.40
2018-09-03T17:04:02.090Z,63.40
2018-09-03T17:06:30.183Z,63.50
2018-09-03T17:08:58.268Z,63.70
2018-09-03T17:11:26.356Z,63.60
2018-09-03T17:13:54.428Z,63.60
2018-09-03T17:16:22.518Z,63.80
2018-09-03T17:18:50.618Z,63.80
2018-09-03T17:21:18.742Z,63.90
2018-09-03T17:23:46.922Z,63.90
2018-09-03T17:26:15.006Z,64.00
2018-09-03T17:28:43.229Z,64.60
2018-09-03T17:31:11.427Z,64.70
2018-09-03T17:33:39.561Z,65.40
2018-09-03T17:36:07.667Z,65.50
2018-09-03T17:38:35.759Z,65.40
2018-09-03T17:41:03.840Z,65.10
2018-09-03T17:43:31.919Z,65.00
2018-09-03T17:46:00.032Z,65.10
2018-09-03T17:48:28.220Z,65.00
2018-09-03T17:50:56.302Z,65.10
2018-09-03T17:53:24.380Z,65.00
2018-09-03T17:55:52.452Z,65.00
2018-09-03T17:58:20.526Z,65.00
2018-09-03T18:00:48.872Z,65.00
2018-09-03T18:03:16.944Z,65.20
2018-09-03T18:05:45.062Z,65.40
2018-09-03T18:08:13.162Z,65.40
2018-09-03T18:10:41.199Z,65.60
2018-09-03T18:13:09.288Z,65.80
2018-09-03T18:15:37.385Z,65.90
2018-09-03T18:18:05.580Z,66.10
2018-09-03T18:20:33.699Z,67.50
2018-09-03T18:23:01.815Z,67.40
2018-09-03T18:25:29.892Z,67.30
2018-09-03T18:27:57.975Z,67.20
2018-09-03T18:30:26.042Z,67.00
2018-09-03T18:32:54.217Z,67.10
2018-09-03T18:35:22.309Z,67.10
2018-09-03T18:37:50.399Z,67.20
2018-09-03T18:40:18.478Z,67.30
2018-09-03T18:42:46.554Z,67.40
2018-09-03T18:45:14.626Z,67.50
2018-09-03T18:47:42.775Z,67.60
2018-09-03T18:50:12.003Z,67.80
2018-09-03T18:52:40.382Z,69.20
2018-09-03T18:55:08.696Z,69.10
2018-09-03T18:57:36.798Z,68.90
2018-09-03T19:00:05.423Z,68.90
2018-09-03T19:02:33.388Z,68.70
2018-09-03T19:05:01.478Z,68.80
2018-09-03T19:07:29.555Z,68.90
2018-09-03T19:09:57.779Z,69.30
2018-09-03T19:12:25.908Z,68.70
2018-09-03T19:14:53.906Z,69.20
2018-09-03T19:17:22.679Z,69.10
2018-09-03T19:19:50.884Z,69.30
2018-09-03T19:22:19.015Z,69.40
2018-09-03T19:24:47.070Z,69.80
2018-09-03T19:27:15.155Z,70.90
2018-09-03T19:29:43.254Z,70.50
2018-09-03T19:32:11.323Z,72.30
2018-09-03T19:34:39.490Z,71.90
2018-09-03T19:37:07.544Z,71.90
2018-09-03T19:39:35.658Z,71.60
2018-09-03T19:42:03.714Z,71.60
2018-09-03T19:44:31.782Z,71.60
2018-09-03T19:46:59.847Z,71.60
2018-09-03T19:49:27.923Z,72.20
2018-09-03T19:51:56.057Z,71.70
2018-09-03T19:54:24.118Z,71.80
2018-09-03T19:56:52.184Z,71.90
2018-09-03T19:59:20.250Z,71.90
2018-09-03T20:01:48.431Z,72.10
2018-09-03T20:04:16.522Z,72.10
2018-09-03T20:06:44.747Z,72.20
2018-09-03T20:09:12.820Z,72.50
2018-09-03T20:11:40.988Z,72.50
2018-09-03T20:14:09.039Z,72.50
2018-09-03T20:16:37.223Z,72.80
2018-09-03T20:19:05.430Z,72.70
2018-09-03T20:21:33.530Z,72.70
2018-09-03T20:24:01.589Z,72.90
2018-09-03T20:26:29.655Z,73.00
2018-09-03T20:28:57.718Z,73.10
2018-09-03T20:31:25.783Z,73.10
2018-09-03T20:33:53.962Z,73.20
2018-09-03T20:36:22.047Z,73.30
2018-09-03T20:38:50.091Z,73.50
2018-09-03T20:41:18.255Z,73.60
2018-09-03T20:43:46.322Z,73.60
2018-09-03T20:46:14.414Z,73.70
2018-09-03T20:48:42.512Z,73.90
2018-09-03T20:51:10.610Z,74.00
2018-09-03T20:53:38.735Z,74.10
2018-09-03T20:56:06.919Z,74.00
2018-09-03T20:58:35.331Z,74.20
2018-09-03T21:01:03.543Z,74.00
2018-09-03T21:03:31.839Z,74.30
2018-09-03T21:05:59.950Z,74.60
2018-09-03T21:08:28.187Z,74.50
2018-09-03T21:10:56.241Z,74.60
2018-09-03T21:13:24.331Z,74.80
2018-09-03T21:15:52.396Z,74.80
2018-09-03T21:18:20.562Z,74.80
2018-09-03T21:20:48.749Z,75.00
2018-09-03T21:23:16.846Z,75.00
2018-09-03T21:25:44.930Z,75.10
2018-09-03T21:28:13.035Z,75.20
2018-09-03T21:30:41.139Z,75.30
2018-09-03T21:33:09.226Z,75.50
2018-09-03T21:35:37.299Z,75.30
2018-09-03T21:38:05.395Z,75.50
2018-09-03T21:40:33.490Z,75.50
2018-09-03T21:43:01.594Z,75.70
2018-09-03T21:45:29.680Z,75.80
2018-09-03T21:47:57.751Z,75.80
2018-09-03T21:50:25.854Z,75.70
2018-09-03T21:52:53.948Z,75.90
2018-09-03T21:55:22.046Z,75.90
2018-09-03T21:57:50.099Z,76.00
2018-09-03T22:00:18.266Z,76.10
2018-09-03T22:02:46.330Z,76.10
2018-09-03T22:05:14.422Z,75.90
2018-09-03T22:07:42.487Z,76.20
2018-09-03T22:10:10.563Z,76.30
2018-09-03T22:12:38.635Z,76.40
2018-09-03T22:15:06.713Z,76.40
2018-09-03T22:17:34.810Z,76.50
2018-09-03T22:20:02.890Z,76.40
2018-09-03T22:22:30.966Z,76.50
2018-09-03T22:24:59.030Z,76.70
2018-09-03T22:27:27.128Z,76.90
2018-09-03T22:29:55.218Z,76.80
2018-09-03T22:32:23.333Z,77.60
2018-09-03T22:34:51.515Z,77.00
2018-09-03T22:37:19.581Z,77.10
2018-09-03T22:39:47.755Z,77.20
2018-09-03T22:42:15.831Z,77.50
2018-09-03T22:44:43.946Z,77.60
2018-09-03T22:47:12.027Z,77.40
2018-09-03T22:49:40.131Z,77.90
2018-09-03T22:52:09.068Z,77.90
2018-09-03T22:54:37.134Z,78.00
2018-09-03T22:57:05.216Z,78.20
2018-09-03T22:59:33.330Z,78.30
2018-09-03T23:02:01.426Z,78.50
2018-09-03T23:04:29.563Z,78.50
2018-09-03T23:06:57.643Z,78.50
2018-09-03T23:09:25.728Z,78.80
2018-09-03T23:11:53.791Z,79.00
2018-09-03T23:14:21.862Z,79.00
2018-09-03T23:16:49.956Z,79.20
2018-09-03T23:19:18.015Z,79.30
2018-09-03T23:21:46.103Z,79.40
2018-09-03T23:24:14.442Z,79.40
2018-09-03T23:26:42.554Z,79.70
2018-09-03T23:29:10.640Z,79.70
2018-09-03T23:31:38.739Z,79.90
2018-09-03T23:34:06.818Z,80.00
2018-09-03T23:36:34.912Z,80.20
2018-09-03T23:39:03.026Z,80.30
2018-09-03T23:41:31.128Z,80.40
2018-09-03T23:43:59.204Z,80.60
2018-09-03T23:46:27.298Z,80.80
2018-09-03T23:48:55.384Z,80.50
2018-09-03T23:51:23.446Z,80.70
2018-09-03T23:53:51.518Z,80.80
2018-09-03T23:56:19.608Z,80.70
2018-09-03T23:58:47.682Z,81.10
